createdAt,value
2023-08-10T00:00:33.862Z,13.58
2023-08-10T00:03:23.002Z,13.56
2023-08-10T00:06:13.056Z,13.54
2023-08-10T00:08:41.950Z,13.49
2023-08-10T00:11:10.339Z,13.45
2023-08-10T00:13:42.402Z,13.41
2023-08-10T00:16:19.539Z,13.37
2023-08-10T00:18:51.391Z,13.32
2023-08-10T00:21:19.775Z,13.29
2023-08-10T00:23:49.438Z,13.24
2023-08-10T00:26:17.883Z,13.20
2023-08-10T00:28:46.718Z,13.17
2023-08-10T00:31:15.737Z,13.09
2023-08-10T00:33:46.820Z,12.95
2023-08-10T00:36:16.794Z,12.77
2023-08-10T00:39:05.846Z,12.54
2023-08-10T00:41:34.615Z,12.35
2023-08-10T00:44:05.749Z,12.17
2023-08-10T00:46:34.675Z,12.05
2023-08-10T00:49:03.562Z,11.96
2023-08-10T00:51:42.412Z,11.91
2023-08-10T00:54:13.648Z,11.93
2023-08-10T00:56:44.540Z,11.95
2023-08-10T00:59:16.034Z,11.96
2023-08-10T01:01:45.811Z,11.98
2023-08-10T01:04:14.862Z,12.01
2023-08-10T01:06:57.237Z,12.02
2023-08-10T01:09:35.446Z,12.01
2023-08-10T01:12:18.810Z,11.98
2023-08-10T01:15:25.867Z,11.93
2023-08-10T01:18:07.325Z,11.95
2023-08-10T01:20:57.327Z,11.93
2023-08-10T01:23:47.833Z,11.90
2023-08-10T01:26:17.495Z,11.83
2023-08-10T01:28:47.061Z,11.79
2023-08-10T01:31:18.097Z,11.74
2023-08-10T01:33:54.010Z,11.68
2023-08-10T01:36:22.481Z,11.65
2023-08-10T01:38:53.638Z,11.64
2023-08-10T01:41:23.580Z,11.65
2023-08-10T01:43:52.283Z,11.68
2023-08-10T01:46:26.733Z,11.74
2023-08-10T01:48:58.737Z,11.83
2023-08-10T01:51:32.108Z,11.91
2023-08-10T01:54:12.464Z,12.01
2023-08-10T01:56:41.592Z,12.13
2023-08-10T01:59:10.697Z,12.28
2023-08-10T02:01:48.877Z,12.36
2023-08-10T02:04:26.287Z,12.43
2023-08-10T02:06:54.583Z,12.45
2023-08-10T02:09:25.814Z,12.44
2023-08-10T02:11:54.192Z,12.45
2023-08-10T02:14:31.387Z,12.45
2023-08-10T02:17:09.801Z,12.41
2023-08-10T02:19:38.277Z,12.40
2023-08-10T02:22:07.123Z,12.40
2023-08-10T02:24:35.813Z,12.39
2023-08-10T02:27:04.613Z,12.35
2023-08-10T02:29:32.918Z,12.34
2023-08-10T02:32:02.592Z,12.33
2023-08-10T02:34:34.468Z,12.31
2023-08-10T02:37:04.210Z,12.29
2023-08-10T02:39:32.803Z,12.29
2023-08-10T02:42:01.653Z,12.29
2023-08-10T02:44:30.298Z,12.29
2023-08-10T02:47:01.443Z,12.33
2023-08-10T02:49:30.028Z,12.37
2023-08-10T02:51:59.944Z,12.43
2023-08-10T02:54:29.031Z,12.45
2023-08-10T02:56:59.666Z,12.44
2023-08-10T02:59:28.237Z,12.42
2023-08-10T03:02:06.856Z,12.37
2023-08-10T03:04:35.932Z,12.33
2023-08-10T03:07:04.454Z,12.30
2023-08-10T03:09:33.127Z,12.28
2023-08-10T03:12:02.052Z,12.22
2023-08-10T03:14:30.621Z,12.18
2023-08-10T03:16:59.565Z,12.19
2023-08-10T03:19:27.907Z,12.25
2023-08-10T03:21:56.778Z,12.31
2023-08-10T03:24:25.680Z,12.39
2023-08-10T03:26:54.111Z,12.48
2023-08-10T03:29:22.646Z,12.56
2023-08-10T03:31:54.030Z,12.66
2023-08-10T03:34:23.085Z,12.76
2023-08-10T03:36:52.452Z,12.85
2023-08-10T03:39:21.427Z,12.94
2023-08-10T03:41:50.273Z,12.98
2023-08-10T03:44:18.832Z,13.00
2023-08-10T03:46:50.749Z,13.02
2023-08-10T03:49:21.042Z,13.05
2023-08-10T03:51:49.299Z,13.06
2023-08-10T03:54:18.388Z,13.10
2023-08-10T03:56:47.113Z,13.13
2023-08-10T03:59:16.538Z,13.17
2023-08-10T04:01:45.009Z,13.20
2023-08-10T04:04:13.410Z,13.21
2023-08-10T04:06:42.396Z,13.16
2023-08-10T04:09:18.380Z,13.08
2023-08-10T04:11:56.945Z,13.03
2023-08-10T04:14:25.472Z,13.00
2023-08-10T04:16:54.368Z,12.97
2023-08-10T04:19:23.216Z,12.96
2023-08-10T04:21:53.407Z,12.93
2023-08-10T04:24:22.332Z,12.92
2023-08-10T04:26:51.145Z,12.90
2023-08-10T04:29:28.973Z,12.93
2023-08-10T04:31:57.522Z,13.00
2023-08-10T04:34:29.433Z,13.06
2023-08-10T04:36:58.029Z,13.14
2023-08-10T04:39:35.415Z,13.24
2023-08-10T04:42:17.482Z,13.35
2023-08-10T04:44:49.070Z,13.42
2023-08-10T04:47:18.053Z,13.52
2023-08-10T04:49:49.715Z,13.64
2023-08-10T04:52:18.724Z,13.78
2023-08-10T04:54:47.332Z,13.90
2023-08-10T04:57:19.049Z,13.94
2023-08-10T04:59:47.688Z,13.89
2023-08-10T05:02:16.258Z,13.79
2023-08-10T05:04:46.109Z,13.69
2023-08-10T05:07:15.254Z,13.64
2023-08-10T05:09:55.978Z,13.63
2023-08-10T05:12:28.283Z,13.67
2023-08-10T05:14:57.768Z,13.72
2023-08-10T05:17:26.890Z,13.75
2023-08-10T05:19:55.371Z,13.86
2023-08-10T05:22:26.807Z,14.03
2023-08-10T05:25:10.232Z,14.20
2023-08-10T05:27:41.179Z,14.36
2023-08-10T05:30:13.921Z,14.56
2023-08-10T05:32:47.963Z,14.85
2023-08-10T05:35:36.831Z,15.36
2023-08-10T05:38:05.497Z,15.72
2023-08-10T05:40:36.407Z,16.04
2023-08-10T05:43:05.882Z,16.35
2023-08-10T05:45:39.188Z,16.57
2023-08-10T05:48:16.922Z,16.76
2023-08-10T05:50:46.252Z,16.81
2023-08-10T05:53:17.976Z,16.97
2023-08-10T05:55:46.655Z,17.07
2023-08-10T05:58:15.384Z,17.28
2023-08-10T06:00:44.078Z,17.01
2023-08-10T06:03:12.793Z,16.60
2023-08-10T06:05:41.546Z,16.26
2023-08-10T06:08:10.161Z,16.00
2023-08-10T06:10:39.210Z,16.21
2023-08-10T06:13:08.210Z,16.44
2023-08-10T06:15:37.097Z,16.72
2023-08-10T06:18:08.300Z,16.94
2023-08-10T06:20:37.964Z,17.15
2023-08-10T06:23:07.089Z,17.30
2023-08-10T06:25:36.243Z,17.44
2023-08-10T06:28:04.943Z,17.27
2023-08-10T06:30:33.385Z,17.29
2023-08-10T06:33:02.631Z,17.67
2023-08-10T06:35:36.559Z,17.83
2023-08-10T06:38:11.182Z,17.79
2023-08-10T06:40:40.089Z,18.13
2023-08-10T06:43:08.394Z,18.62
2023-08-10T06:45:37.007Z,18.82
2023-08-10T06:48:16.231Z,18.67
2023-08-10T06:50:48.896Z,18.31
2023-08-10T06:53:17.638Z,18.28
2023-08-10T06:55:52.220Z,18.19
2023-08-10T07:01:08.744Z,18.02
2023-08-10T07:03:40.596Z,18.06
2023-08-10T07:06:09.674Z,18.01
2023-08-10T07:08:38.614Z,18.02
2023-08-10T07:11:07.275Z,18.19
2023-08-10T07:13:44.977Z,18.57
2023-08-10T07:16:22.458Z,18.68
2023-08-10T07:18:50.925Z,18.67
2023-08-10T07:21:19.980Z,18.73
2023-08-10T07:23:49.648Z,18.93
2023-08-10T07:26:18.639Z,18.80
2023-08-10T07:28:46.907Z,18.93
2023-08-10T07:31:15.378Z,18.85
2023-08-10T07:33:47.238Z,18.82
2023-08-10T07:36:15.804Z,18.89
2023-08-10T07:38:44.399Z,19.01
2023-08-10T07:41:12.920Z,19.22
2023-08-10T07:43:42.132Z,19.26
2023-08-10T07:46:17.154Z,19.05
2023-08-10T07:48:47.132Z,19.07
2023-08-10T07:51:15.769Z,19.19
2023-08-10T07:53:44.547Z,19.14
2023-08-10T07:56:13.037Z,18.95
2023-08-10T07:58:41.937Z,18.76
2023-08-10T08:01:10.588Z,18.71
2023-08-10T08:03:39.027Z,18.88
2023-08-10T08:06:07.932Z,18.98
2023-08-10T08:08:36.608Z,18.94
2023-08-10T08:11:05.087Z,19.00
2023-08-10T08:13:34.452Z,19.08
2023-08-10T08:16:03.369Z,19.22
2023-08-10T08:18:58.771Z,19.61
2023-08-10T08:21:32.263Z,19.89
2023-08-10T08:24:02.517Z,19.84
2023-08-10T08:26:31.973Z,19.96
2023-08-10T08:29:02.848Z,19.86
2023-08-10T08:31:40.472Z,19.70
2023-08-10T08:34:08.670Z,19.51
2023-08-10T08:36:37.234Z,19.54
2023-08-10T08:39:05.947Z,19.79
2023-08-10T08:41:38.449Z,20.05
2023-08-10T08:44:08.357Z,20.17
2023-08-10T08:46:43.561Z,20.35
2023-08-10T08:49:15.916Z,20.30
2023-08-10T08:51:45.193Z,20.23
2023-08-10T08:54:14.098Z,20.32
2023-08-10T08:56:43.243Z,20.32
2023-08-10T08:59:14.681Z,20.37
2023-08-10T09:01:43.537Z,20.20
2023-08-10T09:04:11.995Z,20.21
2023-08-10T09:06:40.565Z,20.26
2023-08-10T09:09:09.096Z,20.32
2023-08-10T09:11:38.334Z,20.52
2023-08-10T09:14:09.773Z,20.77
2023-08-10T09:16:44.748Z,20.87
2023-08-10T09:19:16.359Z,20.76
2023-08-10T09:21:46.779Z,20.73
2023-08-10T09:24:15.115Z,20.88
2023-08-10T09:26:45.117Z,21.02
2023-08-10T09:29:13.965Z,21.16
2023-08-10T09:31:44.946Z,21.28
2023-08-10T09:34:23.222Z,21.12
2023-08-10T09:36:55.061Z,21.09
2023-08-10T09:39:23.285Z,21.04
2023-08-10T09:41:57.129Z,21.12
2023-08-10T09:44:26.474Z,21.29
2023-08-10T09:46:59.576Z,21.19
2023-08-10T09:49:28.251Z,20.77
2023-08-10T09:52:00.334Z,20.52
2023-08-10T09:54:30.134Z,20.79
2023-08-10T09:56:59.167Z,21.05
2023-08-10T09:59:27.980Z,20.89
2023-08-10T10:01:57.931Z,20.84
2023-08-10T10:04:29.703Z,21.18
2023-08-10T10:06:59.475Z,21.38
2023-08-10T10:09:31.140Z,21.18
2023-08-10T10:12:01.992Z,20.83
2023-08-10T10:14:48.703Z,20.41
2023-08-10T10:17:19.080Z,20.32
2023-08-10T10:19:51.766Z,20.44
2023-08-10T10:22:24.021Z,20.68
2023-08-10T10:24:52.959Z,20.77
2023-08-10T10:27:39.786Z,20.49
2023-08-10T10:30:18.732Z,20.15
2023-08-10T10:32:50.217Z,20.42
2023-08-10T10:35:33.208Z,20.92
2023-08-10T10:38:02.810Z,21.36
2023-08-10T10:40:31.070Z,21.53
2023-08-10T10:43:03.054Z,21.63
2023-08-10T10:45:40.453Z,21.85
2023-08-10T10:48:14.309Z,21.54
2023-08-10T10:50:44.854Z,21.56
2023-08-10T10:53:17.357Z,21.69
2023-08-10T10:55:47.299Z,21.79
2023-08-10T10:58:16.849Z,21.84
2023-08-10T11:00:49.610Z,21.87
2023-08-10T11:03:21.095Z,21.89
2023-08-10T11:05:49.510Z,21.65
2023-08-10T11:08:17.892Z,21.58
2023-08-10T11:10:46.552Z,21.48
2023-08-10T11:13:14.967Z,21.25
2023-08-10T11:15:48.239Z,21.45
2023-08-10T11:18:16.902Z,21.92
2023-08-10T11:20:46.559Z,22.27
2023-08-10T11:23:15.965Z,22.62
2023-08-10T11:25:52.773Z,22.30
2023-08-10T11:28:23.446Z,22.12
2023-08-10T11:30:52.000Z,21.99
2023-08-10T11:33:20.729Z,22.03
2023-08-10T11:35:54.295Z,21.80
2023-08-10T11:38:22.784Z,21.39
2023-08-10T11:40:51.536Z,21.38
2023-08-10T11:43:24.336Z,21.77
2023-08-10T11:45:54.713Z,22.24
2023-08-10T11:48:28.298Z,22.17
2023-08-10T11:51:04.476Z,22.02
2023-08-10T11:53:43.212Z,21.88
2023-08-10T11:56:11.634Z,22.06
2023-08-10T11:58:41.352Z,22.28
2023-08-10T12:01:12.787Z,22.20
2023-08-10T12:03:52.189Z,22.48
2023-08-10T12:06:22.036Z,22.56
2023-08-10T12:08:52.493Z,22.45
2023-08-10T12:11:21.354Z,22.43
2023-08-10T12:13:51.232Z,22.49
2023-08-10T12:16:21.895Z,22.57
2023-08-10T12:18:52.305Z,22.37
2023-08-10T12:21:21.211Z,22.37
2023-08-10T12:23:49.527Z,22.53
2023-08-10T12:26:18.472Z,22.47
2023-08-10T12:28:46.814Z,22.50
2023-08-10T12:31:22.698Z,22.64
2023-08-10T12:33:58.789Z,22.64
2023-08-10T12:36:27.688Z,22.09
2023-08-10T12:38:56.867Z,21.92
2023-08-10T12:41:25.261Z,22.23
2023-08-10T12:43:53.940Z,22.33
2023-08-10T12:46:22.904Z,22.23
2023-08-10T12:48:52.406Z,22.27
2023-08-10T12:51:21.708Z,22.26
2023-08-10T12:53:50.721Z,22.28
2023-08-10T12:56:21.876Z,22.54
2023-08-10T12:58:50.483Z,22.75
2023-08-10T13:01:20.850Z,22.89
2023-08-10T13:03:49.357Z,22.39
2023-08-10T13:06:25.450Z,21.59
2023-08-10T13:09:27.595Z,20.93
2023-08-10T13:11:59.423Z,21.00
2023-08-10T13:14:28.141Z,21.39
2023-08-10T13:16:56.529Z,21.59
2023-08-10T13:19:28.346Z,21.64
2023-08-10T13:21:57.494Z,21.80
2023-08-10T13:24:30.085Z,21.85
2023-08-10T13:27:03.367Z,22.06
2023-08-10T13:29:32.071Z,22.37
2023-08-10T13:32:01.163Z,22.23
2023-08-10T13:34:32.853Z,21.74
2023-08-10T13:37:01.327Z,21.35
2023-08-10T13:39:34.046Z,21.23
2023-08-10T13:42:03.089Z,21.13
2023-08-10T13:44:34.072Z,20.83
2023-08-10T13:47:02.967Z,20.64
2023-08-10T13:49:40.621Z,20.55
2023-08-10T13:52:13.343Z,20.35
2023-08-10T13:54:41.715Z,20.35
2023-08-10T13:57:20.810Z,20.59
2023-08-10T13:59:49.868Z,21.16
2023-08-10T14:02:19.369Z,21.69
2023-08-10T14:04:55.627Z,21.85
2023-08-10T14:07:24.004Z,21.99
2023-08-10T14:09:52.636Z,22.14
2023-08-10T14:12:21.168Z,22.10
2023-08-10T14:14:49.539Z,21.76
2023-08-10T14:17:18.472Z,21.51
2023-08-10T14:19:47.894Z,21.29
2023-08-10T14:22:16.502Z,21.28
2023-08-10T14:24:44.844Z,21.39
2023-08-10T14:27:15.529Z,21.69
2023-08-10T14:29:44.089Z,21.88
2023-08-10T14:32:12.486Z,21.85
2023-08-10T14:34:40.769Z,21.93
2023-08-10T14:37:11.907Z,22.01
2023-08-10T14:39:40.159Z,21.99
2023-08-10T14:42:08.674Z,21.71
2023-08-10T14:44:37.829Z,21.53
2023-08-10T14:47:06.605Z,21.57
2023-08-10T14:49:35.006Z,21.69
2023-08-10T14:52:03.746Z,21.55
2023-08-10T14:54:32.593Z,21.34
2023-08-10T14:57:01.205Z,21.32
2023-08-10T14:59:29.998Z,21.38
2023-08-10T15:01:58.657Z,21.38
2023-08-10T15:04:27.478Z,21.33
2023-08-10T15:06:56.027Z,21.21
2023-08-10T15:09:24.610Z,21.11
2023-08-10T15:11:52.938Z,20.99
2023-08-10T15:14:21.196Z,20.89
2023-08-10T15:16:49.627Z,20.86
2023-08-10T15:19:18.121Z,20.89
2023-08-10T15:21:46.730Z,20.96
2023-08-10T15:24:15.140Z,21.02
2023-08-10T15:26:43.676Z,21.05
2023-08-10T15:29:15.243Z,21.04
2023-08-10T15:31:43.808Z,21.05
2023-08-10T15:34:12.097Z,21.10
2023-08-10T15:36:46.353Z,21.10
2023-08-10T15:39:14.493Z,21.06
2023-08-10T15:41:42.702Z,21.00
2023-08-10T15:44:13.702Z,20.98
2023-08-10T15:46:42.373Z,20.98
2023-08-10T15:49:11.072Z,20.89
2023-08-10T15:51:39.916Z,20.78
2023-08-10T15:54:17.170Z,20.66
2023-08-10T15:56:45.410Z,20.61
2023-08-10T15:59:35.409Z,20.62
2023-08-10T16:02:04.549Z,20.58
2023-08-10T16:04:35.116Z,20.52
2023-08-10T16:07:04.454Z,20.52
2023-08-10T16:09:33.000Z,20.52
2023-08-10T16:12:01.594Z,20.47
2023-08-10T16:14:30.267Z,20.46
2023-08-10T16:16:59.283Z,20.44
2023-08-10T16:19:30.693Z,20.38
2023-08-10T16:22:04.367Z,20.26
2023-08-10T16:24:33.742Z,20.21
2023-08-10T16:27:02.177Z,20.19
2023-08-10T16:29:41.682Z,20.18
2023-08-10T16:32:20.246Z,20.18
2023-08-10T16:34:51.885Z,20.18
2023-08-10T16:37:20.303Z,20.14
2023-08-10T16:39:49.038Z,20.10
2023-08-10T16:42:17.534Z,20.07
2023-08-10T16:44:45.911Z,20.08
2023-08-10T16:47:14.520Z,20.11
2023-08-10T16:49:44.134Z,20.14
2023-08-10T16:52:12.715Z,20.11
2023-08-10T16:54:48.497Z,20.09
2023-08-10T16:57:20.740Z,20.06
2023-08-10T16:59:52.283Z,20.00
2023-08-10T17:02:20.894Z,19.97
2023-08-10T17:04:49.879Z,19.94
2023-08-10T17:07:22.124Z,19.92
2023-08-10T17:10:07.450Z,19.90
2023-08-10T17:12:44.980Z,19.87
2023-08-10T17:15:16.457Z,19.82
2023-08-10T17:17:45.869Z,19.77
2023-08-10T17:20:14.614Z,19.73
2023-08-10T17:22:59.386Z,19.68
2023-08-10T17:25:28.055Z,19.60
2023-08-10T17:28:13.343Z,19.54
2023-08-10T17:30:57.798Z,19.47
2023-08-10T17:33:32.149Z,19.41
2023-08-10T17:36:00.960Z,19.36
2023-08-10T17:38:30.948Z,19.33
2023-08-10T17:41:00.773Z,19.29
2023-08-10T17:43:31.687Z,19.23
2023-08-10T17:46:03.140Z,19.18
2023-08-10T17:48:32.014Z,19.13
2023-08-10T17:51:04.170Z,19.06
2023-08-10T17:53:32.802Z,18.98
2023-08-10T17:56:04.503Z,18.89
2023-08-10T17:58:41.717Z,18.79
2023-08-10T18:01:20.836Z,18.68
2023-08-10T18:03:56.442Z,18.61
2023-08-10T18:06:37.053Z,18.50
2023-08-10T18:09:11.564Z,18.33
2023-08-10T18:11:50.436Z,18.16
2023-08-10T18:14:26.166Z,17.92
2023-08-10T18:16:54.814Z,17.72
2023-08-10T18:19:23.381Z,17.54
2023-08-10T18:21:54.778Z,17.37
2023-08-10T18:24:23.579Z,17.25
2023-08-10T18:27:05.642Z,17.12
2023-08-10T18:29:39.613Z,16.98
2023-08-10T18:32:17.819Z,16.85
2023-08-10T18:34:46.425Z,16.71
2023-08-10T18:37:18.917Z,16.57
2023-08-10T18:39:59.156Z,16.44
2023-08-10T18:42:27.921Z,16.34
2023-08-10T18:45:00.290Z,16.27
2023-08-10T18:47:44.310Z,16.21
2023-08-10T18:50:16.057Z,16.12
2023-08-10T18:52:48.209Z,16.01
2023-08-10T18:55:18.882Z,15.91
2023-08-10T18:57:51.144Z,15.80
2023-08-10T19:00:20.374Z,15.73
2023-08-10T19:02:49.054Z,15.69
2023-08-10T19:05:23.204Z,15.63
2023-08-10T19:08:00.830Z,15.56
2023-08-10T19:10:32.319Z,15.51
2023-08-10T19:13:05.069Z,15.44
2023-08-10T19:15:42.996Z,15.35
2023-08-10T19:18:14.687Z,15.28
2023-08-10T19:20:44.221Z,15.22
2023-08-10T19:23:21.943Z,15.18
2023-08-10T19:26:00.349Z,15.13
2023-08-10T19:28:31.928Z,15.10
2023-08-10T19:31:06.042Z,15.08
2023-08-10T19:34:25.312Z,15.08
2023-08-10T19:37:03.230Z,15.08
2023-08-10T19:39:32.246Z,15.10
2023-08-10T19:42:08.742Z,15.11
2023-08-10T19:44:46.325Z,15.10
2023-08-10T19:47:22.006Z,15.06
2023-08-10T19:50:02.330Z,15.00
2023-08-10T19:52:33.920Z,14.93
2023-08-10T19:55:03.665Z,14.87
2023-08-10T19:57:35.075Z,14.83
2023-08-10T20:00:04.189Z,14.77
2023-08-10T20:02:36.824Z,14.72
2023-08-10T20:05:08.847Z,14.68
2023-08-10T20:07:37.770Z,14.65
2023-08-10T20:10:11.005Z,14.62
2023-08-10T20:12:40.437Z,14.62
2023-08-10T20:15:09.799Z,14.60
2023-08-10T20:17:40.304Z,14.56
2023-08-10T20:20:14.480Z,14.49
2023-08-10T20:22:43.137Z,14.45
2023-08-10T20:25:12.244Z,14.41
2023-08-10T20:28:03.330Z,14.38
2023-08-10T20:30:37.698Z,14.33
2023-08-10T20:33:14.359Z,14.29
2023-08-10T20:35:42.980Z,14.27
2023-08-10T20:38:11.630Z,14.26
2023-08-10T20:40:40.256Z,14.25
2023-08-10T20:43:09.634Z,14.23
2023-08-10T20:45:38.704Z,14.21
2023-08-10T20:48:06.986Z,14.16
2023-08-10T20:50:35.759Z,14.10
2023-08-10T20:53:13.868Z,14.03
2023-08-10T20:55:42.629Z,13.99
2023-08-10T20:58:12.600Z,13.94
2023-08-10T21:00:41.633Z,13.92
2023-08-10T21:03:10.405Z,13.94
2023-08-10T21:06:01.654Z,14.00
2023-08-10T21:08:38.606Z,14.05
2023-08-10T21:11:07.482Z,14.12
2023-08-10T21:13:36.648Z,14.19
2023-08-10T21:16:06.150Z,14.27
2023-08-10T21:18:37.494Z,14.32
2023-08-10T21:21:09.573Z,14.37
2023-08-10T21:24:12.734Z,14.43
2023-08-10T21:26:42.143Z,14.51
2023-08-10T21:29:31.997Z,14.56
2023-08-10T21:32:18.407Z,14.63
2023-08-10T21:34:47.421Z,14.66
2023-08-10T21:37:16.272Z,14.65
2023-08-10T21:40:04.673Z,14.65
2023-08-10T21:42:45.940Z,14.66
2023-08-10T21:45:37.918Z,14.69
2023-08-10T21:48:07.234Z,14.70
2023-08-10T21:50:39.051Z,14.72
2023-08-10T21:53:14.488Z,14.72
2023-08-10T21:55:43.279Z,14.74
2023-08-10T21:58:33.680Z,14.76
2023-08-10T22:01:02.639Z,14.78
2023-08-10T22:03:34.781Z,14.79
2023-08-10T22:06:03.761Z,14.81
2023-08-10T22:08:39.190Z,14.80
2023-08-10T22:11:07.887Z,14.80
2023-08-10T22:13:53.945Z,14.79
2023-08-10T22:16:24.219Z,14.78
2023-08-10T22:18:55.743Z,14.78
2023-08-10T22:21:37.190Z,14.76
2023-08-10T22:24:11.129Z,14.75
2023-08-10T22:26:41.040Z,14.73
2023-08-10T22:29:15.992Z,14.71
2023-08-10T22:31:49.006Z,14.71
2023-08-10T22:34:22.558Z,14.70
2023-08-10T22:36:51.562Z,14.67
2023-08-10T22:39:21.584Z,14.67
2023-08-10T22:41:50.777Z,14.68
2023-08-10T22:44:19.636Z,14.67
2023-08-10T22:46:49.887Z,14.62
2023-08-10T22:49:23.198Z,14.57
2023-08-10T22:51:52.636Z,14.51
2023-08-10T22:54:24.021Z,14.47
2023-08-10T23:05:46.341Z,14.51
2023-08-10T23:08:23.386Z,14.54
2023-08-10T23:11:26.003Z,14.58
2023-08-10T23:13:57.760Z,14.65
2023-08-10T23:16:30.326Z,14.70
2023-08-10T23:19:03.216Z,14.76
2023-08-10T23:21:35.067Z,14.80
2023-08-10T23:24:09.735Z,14.83
2023-08-10T23:27:01.533Z,14.84
2023-08-10T23:29:32.400Z,14.82
2023-08-10T23:32:15.257Z,14.80
2023-08-10T23:34:59.491Z,14.77
2023-08-10T23:37:28.453Z,14.77
2023-08-10T23:40:05.229Z,14.79
2023-08-10T23:42:36.594Z,14.82
2023-08-10T23:45:07.383Z,14.83
2023-08-10T23:47:39.609Z,14.83
2023-08-10T23:50:18.731Z,14.83
2023-08-10T23:52:47.872Z,14.82
2023-08-10T23:55:21.346Z,14.80
2023-08-10T23:57:52.895Z,14.80
